Islander Express — WCJ6211 — position and weather

sailwx.info

Track history (hours):
 
Tides and Currents Weather Stations Pressure Air Temp Water Temp Dewpoint Dewpoint Depression Visibility Wind Speed Wind Dir Waves Ship Positions

Islander Express

Owner: RGWT INC, Long Beach, CA. More information available from US FCC via Universal Licensing System and Coast Guard Vessel Documentation Center.

Last reported at 2018-Aug-21 01:31 UTC. Time now 2018-Aug-21 01:56 UTC.
Position N 33°46' W 118°12'.

Length 37 m; draft 1 m.

Type: High speed craft. MMSI: 366943970.

Date/timePositionNaut miles runAvg speedWind from/ knotsBaromVisibWave heightAir tempDewpointWater temp
2018-Aug-21 01:31N 33°46' W 118°12'0 0.8
2018-Aug-21 01:04N 33°46' W 118°12'0 8.0
2018-Aug-21 01:01N 33°45' W 118°11'1325.7
2018-Aug-21 00:30N 33°33' W 118°14'1227.7
2018-Aug-21 00:04N 33°21' W 118°19'0 6.7
2018-Aug-21 00:00N 33°21' W 118°19'0 0.4
2018-Aug-20 23:30N 33°21' W 118°19'1 1.1
2018-Aug-20 23:03N 33°21' W 118°20'0 1.2
2018-Aug-20 23:00N 33°21' W 118°20'0 0.1
2018-Aug-20 22:30N 33°21' W 118°20'0 0.1
2018-Aug-20 22:03N 33°21' W 118°20'0 0.1
2018-Aug-20 22:00N 33°21' W 118°20'0 0.0
2018-Aug-20 21:27N 33°21' W 118°20'0 0.0
2018-Aug-20 20:59N 33°21' W 118°20'0 0.0
2018-Aug-20 20:27N 33°21' W 118°20'0 1.2
2018-Aug-20 20:03N 33°21' W 118°19'0 0.5
2018-Aug-20 19:39N 33°21' W 118°19'825.3
2018-Aug-20 19:21N 33°29' W 118°17'827.5
2018-Aug-20 19:03N 33°36' W 118°14'127.5
2018-Aug-20 19:01N 33°37' W 118°13'816.8
2018-Aug-20 18:30N 33°46' W 118°12'0 0.0
2018-Aug-20 18:03N 33°46' W 118°12'0 0.0
2018-Aug-20 18:00N 33°46' W 118°12'0 0.0
2018-Aug-20 17:30N 33°46' W 118°12'0 0.0
2018-Aug-20 17:03N 33°46' W 118°12'0 0.0
2018-Aug-20 17:00N 33°46' W 118°12'0 0.0
2018-Aug-20 16:30N 33°46' W 118°12'0 0.0
2018-Aug-20 16:03N 33°46' W 118°12'0 0.0
2018-Aug-20 16:00N 33°46' W 118°12'0 0.0
2018-Aug-20 15:30N 33°46' W 118°12'0 0.0
2018-Aug-20 15:03N 33°46' W 118°12'0 0.0
2018-Aug-20 15:00N 33°46' W 118°12'0 0.0
2018-Aug-20 14:30N 33°46' W 118°12'0 0.0
2018-Aug-20 06:04N 33°46' W 118°12'0 0.0
2018-Aug-20 06:01N 33°46' W 118°12'0 0.0
2018-Aug-20 05:30N 33°46' W 118°12'0 0.0
2018-Aug-20 05:04N 33°46' W 118°12'0 0.0
2018-Aug-20 05:00N 33°46' W 118°12'1 5.7
2018-Aug-20 04:47N 33°45' W 118°11'826.9
2018-Aug-20 04:31N 33°37' W 118°12'1427.3
2018-Aug-20 04:01N 33°24' W 118°17'4 8.0
2018-Aug-20 03:30N 33°21' W 118°19'4 7.7
2018-Aug-20 03:01N 33°24' W 118°18'1427.1
2018-Aug-20 02:30N 33°37' W 118°13'917.1
2018-Aug-20 02:00N 33°46' W 118°12'0 0.0
2018-Aug-20 01:30N 33°46' W 118°12'1 2.0
2018-Aug-20 01:01N 33°45' W 118°11'1326.5
2018-Aug-20 00:30N 33°32' W 118°14'1223.9
2018-Aug-20 00:00N 33°21' W 118°19'0 0.0
2018-Aug-19 23:30N 33°21' W 118°19'917.4
2018-Aug-19 23:01N 33°29' W 118°17'1427.9
2018-Aug-19 22:31N 33°42' W 118°12'4 7.0
2018-Aug-19 22:00N 33°46' W 118°12'0 0.0
2018-Aug-19 21:30N 33°46' W 118°12'2 3.4
2018-Aug-19 21:00N 33°45' W 118°10'1527.8
2018-Aug-19 20:27N 33°30' W 118°15'1021.4
2018-Aug-19 20:00N 33°21' W 118°19'0 0.0
2018-Aug-19 19:30N 33°21' W 118°19'6 9.4
2018-Aug-19 18:54N 33°26' W 118°17'1127.9
2018-Aug-19 18:31N 33°36' W 118°14'918.8
2018-Aug-19 18:00N 33°46' W 118°12'0 0.0
2018-Aug-19 17:30N 33°46' W 118°12'1 1.5
2018-Aug-19 17:00N 33°45' W 118°11'1224.9
2018-Aug-19 16:30N 33°33' W 118°13'1323.9
2018-Aug-19 15:57N 33°21' W 118°19'0 0.0
2018-Aug-19 15:30N 33°21' W 118°19'1018.8
2018-Aug-19 14:59N 33°30' W 118°15'1327.9
2018-Aug-19 14:31N 33°43' W 118°11'3 6.3
2018-Aug-19 14:01N 33°46' W 118°12'0 0.0
2018-Aug-19 13:30N 33°46' W 118°12'0 0.0
2018-Aug-19 13:00N 33°46' W 118°12'0 0.0
2018-Aug-19 12:30N 33°46' W 118°12'0 0.0
2018-Aug-19 05:55N 33°46' W 118°12'0 0.0
2018-Aug-19 05:30N 33°46' W 118°12'0 0.0
2018-Aug-19 05:00N 33°46' W 118°12'714.8
2018-Aug-19 04:30N 33°38' W 118°11'1427.1
2018-Aug-19 04:00N 33°25' W 118°16'510.7
2018-Aug-19 03:30N 33°21' W 118°19'3 6.6
2018-Aug-19 03:00N 33°24' W 118°18'1428.3
2018-Aug-19 02:30N 33°37' W 118°14'816.9
2018-Aug-19 02:00N 33°46' W 118°12'0 0.0
2018-Aug-19 01:30N 33°46' W 118°12'1 2.4
2018-Aug-19 01:01N 33°45' W 118°11'1326.5
2018-Aug-19 00:30N 33°32' W 118°14'1224.2
2018-Aug-19 00:00N 33°21' W 118°19'0 0.0
2018-Aug-18 23:30N 33°21' W 118°19'1020.7
2018-Aug-18 23:01N 33°31' W 118°16'1427.2
2018-Aug-18 22:31N 33°44' W 118°11'2 4.7
2018-Aug-18 22:00N 33°46' W 118°12'0 0.0
2018-Aug-18 21:31N 33°46' W 118°12'1 2.1
2018-Aug-18 21:00N 33°45' W 118°11'1225.7
2018-Aug-18 20:31N 33°33' W 118°14'1325.8
2018-Aug-18 20:01N 33°21' W 118°19'0 0.0
2018-Aug-18 19:31N 33°21' W 118°19'510.1
2018-Aug-18 19:00N 33°25' W 118°17'1224.2
2018-Aug-18 18:31N 33°37' W 118°13'917.4
2018-Aug-18 18:00N 33°46' W 118°12'0 0.1
2018-Aug-18 17:30N 33°46' W 118°12'1 1.4
2018-Aug-18 17:00N 33°45' W 118°11'1223.7
2018-Aug-18 16:31N 33°34' W 118°13'1427.6
2018-Aug-18 16:00N 33°21' W 118°19'0 0.1
2018-Aug-18 15:29N 33°21' W 118°19'817.5
2018-Aug-18 15:00N 33°29' W 118°16'1427.2
2018-Aug-18 14:31N 33°42' W 118°12'4 8.1
2018-Aug-18 14:00N 33°46' W 118°12'0 0.0
2018-Aug-18 13:30N 33°46' W 118°12'0 0.0
2018-Aug-18 13:00N 33°46' W 118°12'0 0.0
2018-Aug-18 12:30N 33°46' W 118°12'0 0.0
2018-Aug-18 12:00N 33°46' W 118°12'0 0.0
2018-Aug-17 22:41N 33°46' W 118°12'0 0.0
2018-Aug-17 22:29N 33°46' W 118°12'0 0.3
2018-Aug-17 22:00N 33°46' W 118°12'0 0.3
2018-Aug-17 21:30N 33°46' W 118°12'0 0.0
2018-Aug-17 21:00N 33°46' W 118°12'3 6.9
2018-Aug-17 20:30N 33°42' W 118°11'1121.8
2018-Aug-17 20:00N 33°32' W 118°14'1121.9
2018-Aug-17 19:30N 33°22' W 118°19'3 6.2
2018-Aug-17 18:59N 33°25' W 118°18'1327.4
2018-Aug-17 18:30N 33°37' W 118°13'917.0
2018-Aug-17 18:00N 33°46' W 118°12'0 0.1
2018-Aug-17 17:30N 33°46' W 118°12'1 1.5
2018-Aug-17 17:00N 33°45' W 118°11'1224.4
2018-Aug-17 16:31N 33°33' W 118°14'1414.3
2018-Aug-17 15:34N 33°21' W 118°19'0 0.3
2018-Aug-17 15:28N 33°21' W 118°19'1225.5
2018-Aug-17 15:00N 33°32' W 118°15'1413.9
2018-Aug-17 14:00N 33°46' W 118°12'0 0.0
2018-Aug-17 13:30N 33°46' W 118°12'0 0.0
2018-Aug-17 13:00N 33°46' W 118°12'0 0.0
2018-Aug-17 12:30N 33°46' W 118°12'0 0.0
2018-Aug-17 02:41N 33°46' W 118°12'0 0.0
2018-Aug-17 02:30N 33°46' W 118°12'0 0.0
2018-Aug-17 02:00N 33°46' W 118°12'0 0.0
2018-Aug-17 01:30N 33°46' W 118°12'1 2.9
2018-Aug-17 01:00N 33°45' W 118°11'1427.5
2018-Aug-17 00:31N 33°31' W 118°15'1121.2
2018-Aug-16 23:59N 33°21' W 118°19'1 0.3
2018-Aug-16 21:34N 33°21' W 118°20'0 0.0
2018-Aug-16 21:20N 33°21' W 118°20'0 0.0
2018-Aug-16 20:48N 33°21' W 118°20'0 0.0
2018-Aug-16 20:27N 33°21' W 118°20'0 0.1
2018-Aug-16 19:57N 33°21' W 118°20'1 1.6
2018-Aug-16 19:28N 33°21' W 118°19'4 8.2
2018-Aug-16 19:00N 33°24' W 118°18'1427.4
2018-Aug-16 18:31N 33°37' W 118°13'916.6
2018-Aug-16 18:00N 33°46' W 118°12'0 0.2
2018-Aug-16 17:30N 33°46' W 118°12'0 0.0
2018-Aug-16 17:00N 33°46' W 118°12'0 0.0
2018-Aug-16 16:30N 33°46' W 118°12'0 0.0
2018-Aug-16 16:00N 33°46' W 118°12'0 0.0
2018-Aug-16 15:30N 33°46' W 118°12'0 0.0
2018-Aug-16 15:00N 33°46' W 118°12'0 0.0
2018-Aug-16 14:30N 33°46' W 118°12'0 0.0
2018-Aug-16 14:00N 33°46' W 118°12'0 0.0
2018-Aug-16 13:30N 33°46' W 118°12'0 0.0
2018-Aug-16 13:00N 33°46' W 118°12'0 0.0
2018-Aug-16 03:05N 33°46' W 118°12'0 0.0
2018-Aug-16 03:00N 33°46' W 118°12'0 0.0
2018-Aug-16 02:30N 33°46' W 118°12'0 0.0
2018-Aug-16 02:00N 33°46' W 118°12'0 0.5
2018-Aug-16 01:30N 33°46' W 118°12'1223.9
2018-Aug-16 01:01N 33°34' W 118°14'1427.1
2018-Aug-16 00:30N 33°21' W 118°19'1 1.6
2018-Aug-16 00:01N 33°21' W 118°18'1526.9
2018-Aug-15 23:28N 33°23' W 118°01'1227.0
2018-Aug-15 23:01N 33°26' W 117°47'5 9.0
2018-Aug-15 22:29N 33°28' W 117°42'0 0.0
2018-Aug-15 22:00N 33°28' W 117°42'0 0.0
2018-Aug-15 21:30N 33°28' W 117°42'0 0.0
2018-Aug-15 21:00N 33°28' W 117°42'0 0.0
2018-Aug-15 20:30N 33°28' W 117°42'3 5.2
2018-Aug-15 20:01N 33°27' W 117°45'1326.8
2018-Aug-15 19:30N 33°24' W 118°00'1626.8
2018-Aug-15 18:55N 33°21' W 118°19'0 1.0
2018-Aug-15 18:26N 33°21' W 118°19'3 6.5
2018-Aug-15 18:00N 33°21' W 118°16'30 1.9
2018-Aug-15 02:11N 33°28' W 117°42'0 0.5
2018-Aug-15 02:00N 33°28' W 117°41'1223.1
2018-Aug-15 01:31N 33°25' W 117°55'1427.0
2018-Aug-15 00:58N 33°22' W 118°12'6 6.2
2018-Aug-15 00:04N 33°21' W 118°18'125.8
2018-Aug-15 00:00N 33°21' W 118°17'1326.1
2018-Aug-14 23:30N 33°24' W 118°01'1325.9
2018-Aug-14 23:00N 33°26' W 117°46'4 8.3
2018-Aug-14 22:30N 33°28' W 117°42'0 0.0
2018-Aug-14 22:00N 33°28' W 117°42'0 0.0
2018-Aug-14 21:30N 33°28' W 117°42'0 0.0
2018-Aug-14 21:00N 33°28' W 117°42'0 0.0
2018-Aug-14 20:31N 33°28' W 117°42'3 6.6
2018-Aug-14 20:01N 33°26' W 117°45'1326.7
2018-Aug-14 19:30N 33°24' W 118°01'1326.8
2018-Aug-14 19:00N 33°21' W 118°17'2 4.5
2018-Aug-14 18:29N 33°21' W 118°19'5 9.7
2018-Aug-14 18:01N 33°22' W 118°14'1325.9
2018-Aug-14 17:31N 33°24' W 117°59'1326.0
2018-Aug-14 17:00N 33°27' W 117°43'2 3.6
2018-Aug-14 16:30N 33°28' W 117°42'0 0.0
2018-Aug-14 16:00N 33°28' W 117°42'0 0.0
2018-Aug-14 15:30N 33°28' W 117°42'0 0.0
2018-Aug-14 03:08N 33°28' W 117°42'0 0.0
2018-Aug-14 03:00N 33°28' W 117°42'0 0.0
2018-Aug-14 02:30N 33°28' W 117°42'0 0.1
2018-Aug-14 02:00N 33°28' W 117°41'1223.8
2018-Aug-14 01:30N 33°24' W 117°55'1427.9
2018-Aug-14 01:01N 33°22' W 118°11'713.5
2018-Aug-14 00:30N 33°21' W 118°19'4 8.4
2018-Aug-14 00:01N 33°22' W 118°15'1427.1
2018-Aug-13 23:31N 33°25' W 117°59'1020.2
2018-Aug-13 23:01N 33°26' W 117°47'4 8.9
2018-Aug-13 22:30N 33°28' W 117°42'0 0.0
2018-Aug-13 22:00N 33°28' W 117°42'0 0.0
2018-Aug-13 21:30N 33°28' W 117°42'0 0.0
2018-Aug-13 21:00N 33°28' W 117°42'0 0.0
2018-Aug-13 20:30N 33°28' W 117°42'1 2.2
2018-Aug-13 20:01N 33°27' W 117°42'1428.5
2018-Aug-13 19:30N 33°23' W 117°59'1428.2
2018-Aug-13 19:01N 33°21' W 118°15'3 6.6
2018-Aug-13 18:30N 33°21' W 118°19'715.0
2018-Aug-13 18:00N 33°23' W 118°11'1020.4
2018-Aug-13 17:31N 33°24' W 117°59'1427.2
2018-Aug-13 17:00N 33°27' W 117°43'1 2.1
2018-Aug-13 16:28N 33°28' W 117°42'0 0.0
2018-Aug-13 16:00N 33°28' W 117°42'0 0.1
2018-Aug-13 15:30N 33°28' W 117°41'0 0.0
2018-Aug-13 03:10N 33°28' W 117°42'0 1.0
2018-Aug-13 03:01N 33°27' W 117°42'1325.6
2018-Aug-13 02:30N 33°24' W 117°56'1428.5
2018-Aug-13 02:00N 33°22' W 118°13'510.4
2018-Aug-13 01:30N 33°21' W 118°19'1 1.0
2018-Aug-13 01:01N 33°21' W 118°19'1428.5
2018-Aug-13 00:31N 33°23' W 118°02'1428.0
2018-Aug-13 00:01N 33°26' W 117°46'4 7.2
2018-Aug-12 23:30N 33°28' W 117°42'0 0.0
2018-Aug-12 23:00N 33°28' W 117°42'0 0.0
2018-Aug-12 22:30N 33°28' W 117°42'612.5
2018-Aug-12 22:00N 33°26' W 117°49'1428.6
2018-Aug-12 21:31N 33°23' W 118°05'1223.9
2018-Aug-12 21:00N 33°21' W 118°19'0 0.0
2018-Aug-12 20:30N 33°21' W 118°19'611.4
2018-Aug-12 20:00N 33°22' W 118°13'1427.6
2018-Aug-12 19:31N 33°25' W 117°57'1325.9
2018-Aug-12 19:00N 33°27' W 117°41'0 0.6
2018-Aug-12 18:30N 33°28' W 117°42'1 1.4
2018-Aug-12 18:01N 33°27' W 117°42'1428.5
2018-Aug-12 17:30N 33°24' W 117°59'1428.1
2018-Aug-12 17:00N 33°22' W 118°15'4 4.3
2018-Aug-12 16:10N 33°21' W 118°19'0 1.8
2018-Aug-12 16:00N 33°21' W 118°19'1427.3
2018-Aug-12 15:30N 33°24' W 118°03'1427.8
2018-Aug-12 15:00N 33°26' W 117°47'5 9.1
2018-Aug-12 14:30N 33°28' W 117°42'0 0.0
2018-Aug-12 14:00N 33°28' W 117°42'0 0.1
2018-Aug-12 13:30N 33°28' W 117°41'0 0.0
2018-Aug-12 03:27N 33°28' W 117°42'0 0.8
2018-Aug-12 03:01N 33°27' W 117°41'1427.4
2018-Aug-12 02:30N 33°24' W 117°57'1428.4
2018-Aug-12 02:01N 33°22' W 118°14'4 8.9
2018-Aug-12 01:30N 33°21' W 118°19'0 0.4
2018-Aug-12 01:00N 33°21' W 118°19'1427.6
2018-Aug-12 00:30N 33°23' W 118°03'1428.4
2018-Aug-12 00:00N 33°26' W 117°46'4 8.6
2018-Aug-11 23:30N 33°28' W 117°42'0 0.0
2018-Aug-11 22:59N 33°28' W 117°42'0 0.0
2018-Aug-11 22:30N 33°28' W 117°42'5 9.0
2018-Aug-11 22:00N 33°26' W 117°47'1428.6
2018-Aug-11 21:31N 33°24' W 118°03'1426.4
2018-Aug-11 21:00N 33°21' W 118°19'0 0.0
2018-Aug-11 20:29N 33°21' W 118°19'714.1
2018-Aug-11 20:01N 33°22' W 118°12'1427.4
2018-Aug-11 19:30N 33°25' W 117°55'1223.6
2018-Aug-11 19:00N 33°28' W 117°42'0 0.2
2018-Aug-11 18:30N 33°28' W 117°42'1 1.3
2018-Aug-11 18:01N 33°27' W 117°42'1428.9
2018-Aug-11 17:31N 33°24' W 117°59'1629.0
2018-Aug-11 16:57N 33°21' W 118°18'1 3.1
2018-Aug-11 16:30N 33°21' W 118°19'4 9.2
2018-Aug-11 16:00N 33°22' W 118°14'28 2.3
2018-Aug-11 03:56N 33°28' W 117°42'0 0.0
2018-Aug-11 03:30N 33°28' W 117°42'0 0.2
2018-Aug-11 03:01N 33°28' W 117°42'1224.8
2018-Aug-11 02:31N 33°25' W 117°56'1428.4
2018-Aug-11 02:00N 33°22' W 118°13'611.4
2018-Aug-11 01:31N 33°21' W 118°19'  
Track history (hours):
 
Tides and Currents Weather Stations Pressure Air Temp Water Temp Dewpoint Dewpoint Depression Visibility Wind Speed Wind Dir Waves Ship Positions

Islander Express

Owner: RGWT INC, Long Beach, CA. More information available from US FCC via Universal Licensing System and Coast Guard Vessel Documentation Center.

Last reported at 2018-Aug-21 01:31 UTC. Time now 2018-Aug-21 01:56 UTC.
Position N 33°46' W 118°12'.

Length 37 m; draft 1 m.

Type: High speed craft. MMSI: 366943970.

Date/timePositionNaut miles runAvg speedWind from/ knotsBaromVisibWave heightAir tempDewpointWater temp
2018-Aug-21 01:31N 33°46' W 118°12'0 0.8
2018-Aug-21 01:04N 33°46' W 118°12'0 8.0
2018-Aug-21 01:01N 33°45' W 118°11'1325.7
2018-Aug-21 00:30N 33°33' W 118°14'1227.7
2018-Aug-21 00:04N 33°21' W 118°19'0 6.7
2018-Aug-21 00:00N 33°21' W 118°19'0 0.4
2018-Aug-20 23:30N 33°21' W 118°19'1 1.1
2018-Aug-20 23:03N 33°21' W 118°20'0 1.2
2018-Aug-20 23:00N 33°21' W 118°20'0 0.1
2018-Aug-20 22:30N 33°21' W 118°20'0 0.1
2018-Aug-20 22:03N 33°21' W 118°20'0 0.1
2018-Aug-20 22:00N 33°21' W 118°20'0 0.0
2018-Aug-20 21:27N 33°21' W 118°20'0 0.0
2018-Aug-20 20:59N 33°21' W 118°20'0 0.0
2018-Aug-20 20:27N 33°21' W 118°20'0 1.2
2018-Aug-20 20:03N 33°21' W 118°19'0 0.5
2018-Aug-20 19:39N 33°21' W 118°19'825.3
2018-Aug-20 19:21N 33°29' W 118°17'827.5
2018-Aug-20 19:03N 33°36' W 118°14'127.5
2018-Aug-20 19:01N 33°37' W 118°13'816.8
2018-Aug-20 18:30N 33°46' W 118°12'0 0.0
2018-Aug-20 18:03N 33°46' W 118°12'0 0.0
2018-Aug-20 18:00N 33°46' W 118°12'0 0.0
2018-Aug-20 17:30N 33°46' W 118°12'0 0.0
2018-Aug-20 17:03N 33°46' W 118°12'0 0.0
2018-Aug-20 17:00N 33°46' W 118°12'0 0.0
2018-Aug-20 16:30N 33°46' W 118°12'0 0.0
2018-Aug-20 16:03N 33°46' W 118°12'0 0.0
2018-Aug-20 16:00N 33°46' W 118°12'0 0.0
2018-Aug-20 15:30N 33°46' W 118°12'0 0.0
2018-Aug-20 15:03N 33°46' W 118°12'0 0.0
2018-Aug-20 15:00N 33°46' W 118°12'0 0.0
2018-Aug-20 14:30N 33°46' W 118°12'0 0.0
2018-Aug-20 06:04N 33°46' W 118°12'0 0.0
2018-Aug-20 06:01N 33°46' W 118°12'0 0.0
2018-Aug-20 05:30N 33°46' W 118°12'0 0.0
2018-Aug-20 05:04N 33°46' W 118°12'0 0.0
2018-Aug-20 05:00N 33°46' W 118°12'1 5.7
2018-Aug-20 04:47N 33°45' W 118°11'826.9
2018-Aug-20 04:31N 33°37' W 118°12'1427.3
2018-Aug-20 04:01N 33°24' W 118°17'4 8.0
2018-Aug-20 03:30N 33°21' W 118°19'4 7.7
2018-Aug-20 03:01N 33°24' W 118°18'1427.1
2018-Aug-20 02:30N 33°37' W 118°13'917.1
2018-Aug-20 02:00N 33°46' W 118°12'0 0.0
2018-Aug-20 01:30N 33°46' W 118°12'1 2.0
2018-Aug-20 01:01N 33°45' W 118°11'1326.5
2018-Aug-20 00:30N 33°32' W 118°14'1223.9
2018-Aug-20 00:00N 33°21' W 118°19'0 0.0
2018-Aug-19 23:30N 33°21' W 118°19'917.4
2018-Aug-19 23:01N 33°29' W 118°17'1427.9
2018-Aug-19 22:31N 33°42' W 118°12'4 7.0
2018-Aug-19 22:00N 33°46' W 118°12'0 0.0
2018-Aug-19 21:30N 33°46' W 118°12'2 3.4
2018-Aug-19 21:00N 33°45' W 118°10'1527.8
2018-Aug-19 20:27N 33°30' W 118°15'1021.4
2018-Aug-19 20:00N 33°21' W 118°19'0 0.0
2018-Aug-19 19:30N 33°21' W 118°19'6 9.4
2018-Aug-19 18:54N 33°26' W 118°17'1127.9
2018-Aug-19 18:31N 33°36' W 118°14'918.8
2018-Aug-19 18:00N 33°46' W 118°12'0 0.0
2018-Aug-19 17:30N 33°46' W 118°12'1 1.5
2018-Aug-19 17:00N 33°45' W 118°11'1224.9
2018-Aug-19 16:30N 33°33' W 118°13'1323.9
2018-Aug-19 15:57N 33°21' W 118°19'0 0.0
2018-Aug-19 15:30N 33°21' W 118°19'1018.8
2018-Aug-19 14:59N 33°30' W 118°15'1327.9
2018-Aug-19 14:31N 33°43' W 118°11'3 6.3
2018-Aug-19 14:01N 33°46' W 118°12'0 0.0
2018-Aug-19 13:30N 33°46' W 118°12'0 0.0
2018-Aug-19 13:00N 33°46' W 118°12'0 0.0
2018-Aug-19 12:30N 33°46' W 118°12'0 0.0
2018-Aug-19 05:55N 33°46' W 118°12'0 0.0
2018-Aug-19 05:30N 33°46' W 118°12'0 0.0
2018-Aug-19 05:00N 33°46' W 118°12'714.8
2018-Aug-19 04:30N 33°38' W 118°11'1427.1
2018-Aug-19 04:00N 33°25' W 118°16'510.7
2018-Aug-19 03:30N 33°21' W 118°19'3 6.6
2018-Aug-19 03:00N 33°24' W 118°18'1428.3
2018-Aug-19 02:30N 33°37' W 118°14'816.9
2018-Aug-19 02:00N 33°46' W 118°12'0 0.0
2018-Aug-19 01:30N 33°46' W 118°12'1 2.4
2018-Aug-19 01:01N 33°45' W 118°11'1326.5
2018-Aug-19 00:30N 33°32' W 118°14'1224.2
2018-Aug-19 00:00N 33°21' W 118°19'0 0.0
2018-Aug-18 23:30N 33°21' W 118°19'1020.7
2018-Aug-18 23:01N 33°31' W 118°16'1427.2
2018-Aug-18 22:31N 33°44' W 118°11'2 4.7
2018-Aug-18 22:00N 33°46' W 118°12'0 0.0
2018-Aug-18 21:31N 33°46' W 118°12'1 2.1
2018-Aug-18 21:00N 33°45' W 118°11'1225.7
2018-Aug-18 20:31N 33°33' W 118°14'1325.8
2018-Aug-18 20:01N 33°21' W 118°19'0 0.0
2018-Aug-18 19:31N 33°21' W 118°19'510.1
2018-Aug-18 19:00N 33°25' W 118°17'1224.2
2018-Aug-18 18:31N 33°37' W 118°13'917.4
2018-Aug-18 18:00N 33°46' W 118°12'0 0.1
2018-Aug-18 17:30N 33°46' W 118°12'1 1.4
2018-Aug-18 17:00N 33°45' W 118°11'1223.7
2018-Aug-18 16:31N 33°34' W 118°13'1427.6
2018-Aug-18 16:00N 33°21' W 118°19'0 0.1
2018-Aug-18 15:29N 33°21' W 118°19'817.5
2018-Aug-18 15:00N 33°29' W 118°16'1427.2
2018-Aug-18 14:31N 33°42' W 118°12'4 8.1
2018-Aug-18 14:00N 33°46' W 118°12'0 0.0
2018-Aug-18 13:30N 33°46' W 118°12'0 0.0
2018-Aug-18 13:00N 33°46' W 118°12'0 0.0
2018-Aug-18 12:30N 33°46' W 118°12'0 0.0
2018-Aug-18 12:00N 33°46' W 118°12'0 0.0
2018-Aug-17 22:41N 33°46' W 118°12'0 0.0
2018-Aug-17 22:29N 33°46' W 118°12'0 0.3
2018-Aug-17 22:00N 33°46' W 118°12'0 0.3
2018-Aug-17 21:30N 33°46' W 118°12'0 0.0
2018-Aug-17 21:00N 33°46' W 118°12'3 6.9
2018-Aug-17 20:30N 33°42' W 118°11'1121.8
2018-Aug-17 20:00N 33°32' W 118°14'1121.9
2018-Aug-17 19:30N 33°22' W 118°19'3 6.2
2018-Aug-17 18:59N 33°25' W 118°18'1327.4
2018-Aug-17 18:30N 33°37' W 118°13'917.0
2018-Aug-17 18:00N 33°46' W 118°12'0 0.1
2018-Aug-17 17:30N 33°46' W 118°12'1 1.5
2018-Aug-17 17:00N 33°45' W 118°11'1224.4
2018-Aug-17 16:31N 33°33' W 118°14'1414.3
2018-Aug-17 15:34N 33°21' W 118°19'0 0.3
2018-Aug-17 15:28N 33°21' W 118°19'1225.5
2018-Aug-17 15:00N 33°32' W 118°15'1413.9
2018-Aug-17 14:00N 33°46' W 118°12'0 0.0
2018-Aug-17 13:30N 33°46' W 118°12'0 0.0
2018-Aug-17 13:00N 33°46' W 118°12'0 0.0
2018-Aug-17 12:30N 33°46' W 118°12'0 0.0
2018-Aug-17 02:41N 33°46' W 118°12'0 0.0
2018-Aug-17 02:30N 33°46' W 118°12'0 0.0
2018-Aug-17 02:00N 33°46' W 118°12'0 0.0
2018-Aug-17 01:30N 33°46' W 118°12'1 2.9
2018-Aug-17 01:00N 33°45' W 118°11'1427.5
2018-Aug-17 00:31N 33°31' W 118°15'1121.2
2018-Aug-16 23:59N 33°21' W 118°19'1 0.3
2018-Aug-16 21:34N 33°21' W 118°20'0 0.0
2018-Aug-16 21:20N 33°21' W 118°20'0 0.0
2018-Aug-16 20:48N 33°21' W 118°20'0 0.0
2018-Aug-16 20:27N 33°21' W 118°20'0 0.1
2018-Aug-16 19:57N 33°21' W 118°20'1 1.6
2018-Aug-16 19:28N 33°21' W 118°19'4 8.2
2018-Aug-16 19:00N 33°24' W 118°18'1427.4
2018-Aug-16 18:31N 33°37' W 118°13'916.6
2018-Aug-16 18:00N 33°46' W 118°12'0 0.2
2018-Aug-16 17:30N 33°46' W 118°12'0 0.0
2018-Aug-16 17:00N 33°46' W 118°12'0 0.0
2018-Aug-16 16:30N 33°46' W 118°12'0 0.0
2018-Aug-16 16:00N 33°46' W 118°12'0 0.0
2018-Aug-16 15:30N 33°46' W 118°12'0 0.0
2018-Aug-16 15:00N 33°46' W 118°12'0 0.0
2018-Aug-16 14:30N 33°46' W 118°12'0 0.0
2018-Aug-16 14:00N 33°46' W 118°12'0 0.0
2018-Aug-16 13:30N 33°46' W 118°12'0 0.0
2018-Aug-16 13:00N 33°46' W 118°12'0 0.0
2018-Aug-16 03:05N 33°46' W 118°12'0 0.0
2018-Aug-16 03:00N 33°46' W 118°12'0 0.0
2018-Aug-16 02:30N 33°46' W 118°12'0 0.0
2018-Aug-16 02:00N 33°46' W 118°12'0 0.5
2018-Aug-16 01:30N 33°46' W 118°12'1223.9
2018-Aug-16 01:01N 33°34' W 118°14'1427.1
2018-Aug-16 00:30N 33°21' W 118°19'1 1.6
2018-Aug-16 00:01N 33°21' W 118°18'1526.9
2018-Aug-15 23:28N 33°23' W 118°01'1227.0
2018-Aug-15 23:01N 33°26' W 117°47'5 9.0
2018-Aug-15 22:29N 33°28' W 117°42'0 0.0
2018-Aug-15 22:00N 33°28' W 117°42'0 0.0
2018-Aug-15 21:30N 33°28' W 117°42'0 0.0
2018-Aug-15 21:00N 33°28' W 117°42'0 0.0
2018-Aug-15 20:30N 33°28' W 117°42'3 5.2
2018-Aug-15 20:01N 33°27' W 117°45'1326.8
2018-Aug-15 19:30N 33°24' W 118°00'1626.8
2018-Aug-15 18:55N 33°21' W 118°19'0 1.0
2018-Aug-15 18:26N 33°21' W 118°19'3 6.5
2018-Aug-15 18:00N 33°21' W 118°16'30 1.9
2018-Aug-15 02:11N 33°28' W 117°42'0 0.5
2018-Aug-15 02:00N 33°28' W 117°41'1223.1
2018-Aug-15 01:31N 33°25' W 117°55'1427.0
2018-Aug-15 00:58N 33°22' W 118°12'6 6.2
2018-Aug-15 00:04N 33°21' W 118°18'125.8
2018-Aug-15 00:00N 33°21' W 118°17'1326.1
2018-Aug-14 23:30N 33°24' W 118°01'1325.9
2018-Aug-14 23:00N 33°26' W 117°46'4 8.3
2018-Aug-14 22:30N 33°28' W 117°42'0 0.0
2018-Aug-14 22:00N 33°28' W 117°42'0 0.0
2018-Aug-14 21:30N 33°28' W 117°42'0 0.0
2018-Aug-14 21:00N 33°28' W 117°42'0 0.0
2018-Aug-14 20:31N 33°28' W 117°42'3 6.6
2018-Aug-14 20:01N 33°26' W 117°45'1326.7
2018-Aug-14 19:30N 33°24' W 118°01'1326.8
2018-Aug-14 19:00N 33°21' W 118°17'2 4.5
2018-Aug-14 18:29N 33°21' W 118°19'5 9.7
2018-Aug-14 18:01N 33°22' W 118°14'1325.9
2018-Aug-14 17:31N 33°24' W 117°59'1326.0
2018-Aug-14 17:00N 33°27' W 117°43'2 3.6
2018-Aug-14 16:30N 33°28' W 117°42'0 0.0
2018-Aug-14 16:00N 33°28' W 117°42'0 0.0
2018-Aug-14 15:30N 33°28' W 117°42'0 0.0
2018-Aug-14 03:08N 33°28' W 117°42'0 0.0
2018-Aug-14 03:00N 33°28' W 117°42'0 0.0
2018-Aug-14 02:30N 33°28' W 117°42'0 0.1
2018-Aug-14 02:00N 33°28' W 117°41'1223.8
2018-Aug-14 01:30N 33°24' W 117°55'1427.9
2018-Aug-14 01:01N 33°22' W 118°11'713.5
2018-Aug-14 00:30N 33°21' W 118°19'4 8.4
2018-Aug-14 00:01N 33°22' W 118°15'1427.1
2018-Aug-13 23:31N 33°25' W 117°59'1020.2
2018-Aug-13 23:01N 33°26' W 117°47'4 8.9
2018-Aug-13 22:30N 33°28' W 117°42'0 0.0
2018-Aug-13 22:00N 33°28' W 117°42'0 0.0
2018-Aug-13 21:30N 33°28' W 117°42'0 0.0
2018-Aug-13 21:00N 33°28' W 117°42'0 0.0
2018-Aug-13 20:30N 33°28' W 117°42'1 2.2
2018-Aug-13 20:01N 33°27' W 117°42'1428.5
2018-Aug-13 19:30N 33°23' W 117°59'1428.2
2018-Aug-13 19:01N 33°21' W 118°15'3 6.6
2018-Aug-13 18:30N 33°21' W 118°19'715.0
2018-Aug-13 18:00N 33°23' W 118°11'1020.4
2018-Aug-13 17:31N 33°24' W 117°59'1427.2
2018-Aug-13 17:00N 33°27' W 117°43'1 2.1
2018-Aug-13 16:28N 33°28' W 117°42'0 0.0
2018-Aug-13 16:00N 33°28' W 117°42'0 0.1
2018-Aug-13 15:30N 33°28' W 117°41'0 0.0
2018-Aug-13 03:10N 33°28' W 117°42'0 1.0
2018-Aug-13 03:01N 33°27' W 117°42'1325.6
2018-Aug-13 02:30N 33°24' W 117°56'1428.5
2018-Aug-13 02:00N 33°22' W 118°13'510.4
2018-Aug-13 01:30N 33°21' W 118°19'1 1.0
2018-Aug-13 01:01N 33°21' W 118°19'1428.5
2018-Aug-13 00:31N 33°23' W 118°02'1428.0
2018-Aug-13 00:01N 33°26' W 117°46'4 7.2
2018-Aug-12 23:30N 33°28' W 117°42'0 0.0
2018-Aug-12 23:00N 33°28' W 117°42'0 0.0
2018-Aug-12 22:30N 33°28' W 117°42'612.5
2018-Aug-12 22:00N 33°26' W 117°49'1428.6
2018-Aug-12 21:31N 33°23' W 118°05'1223.9
2018-Aug-12 21:00N 33°21' W 118°19'0 0.0
2018-Aug-12 20:30N 33°21' W 118°19'611.4
2018-Aug-12 20:00N 33°22' W 118°13'1427.6
2018-Aug-12 19:31N 33°25' W 117°57'1325.9
2018-Aug-12 19:00N 33°27' W 117°41'0 0.6
2018-Aug-12 18:30N 33°28' W 117°42'1 1.4
2018-Aug-12 18:01N 33°27' W 117°42'1428.5
2018-Aug-12 17:30N 33°24' W 117°59'1428.1
2018-Aug-12 17:00N 33°22' W 118°15'4 4.3
2018-Aug-12 16:10N 33°21' W 118°19'0 1.8
2018-Aug-12 16:00N 33°21' W 118°19'1427.3
2018-Aug-12 15:30N 33°24' W 118°03'1427.8
2018-Aug-12 15:00N 33°26' W 117°47'5 9.1
2018-Aug-12 14:30N 33°28' W 117°42'0 0.0
2018-Aug-12 14:00N 33°28' W 117°42'0 0.1
2018-Aug-12 13:30N 33°28' W 117°41'0 0.0
2018-Aug-12 03:27N 33°28' W 117°42'0 0.8
2018-Aug-12 03:01N 33°27' W 117°41'1427.4
2018-Aug-12 02:30N 33°24' W 117°57'1428.4
2018-Aug-12 02:01N 33°22' W 118°14'4 8.9
2018-Aug-12 01:30N 33°21' W 118°19'0 0.4
2018-Aug-12 01:00N 33°21' W 118°19'1427.6
2018-Aug-12 00:30N 33°23' W 118°03'1428.4
2018-Aug-12 00:00N 33°26' W 117°46'4 8.6
2018-Aug-11 23:30N 33°28' W 117°42'0 0.0
2018-Aug-11 22:59N 33°28' W 117°42'0 0.0
2018-Aug-11 22:30N 33°28' W 117°42'5 9.0
2018-Aug-11 22:00N 33°26' W 117°47'1428.6
2018-Aug-11 21:31N 33°24' W 118°03'1426.4
2018-Aug-11 21:00N 33°21' W 118°19'0 0.0
2018-Aug-11 20:29N 33°21' W 118°19'714.1
2018-Aug-11 20:01N 33°22' W 118°12'1427.4
2018-Aug-11 19:30N 33°25' W 117°55'1223.6
2018-Aug-11 19:00N 33°28' W 117°42'0 0.2
2018-Aug-11 18:30N 33°28' W 117°42'1 1.3
2018-Aug-11 18:01N 33°27' W 117°42'1428.9
2018-Aug-11 17:31N 33°24' W 117°59'1629.0
2018-Aug-11 16:57N 33°21' W 118°18'1 3.1
2018-Aug-11 16:30N 33°21' W 118°19'4 9.2
2018-Aug-11 16:00N 33°22' W 118°14'28 2.3
2018-Aug-11 03:56N 33°28' W 117°42'0 0.0
2018-Aug-11 03:30N 33°28' W 117°42'0 0.2
2018-Aug-11 03:01N 33°28' W 117°42'1224.8
2018-Aug-11 02:31N 33°25' W 117°56'1428.4
2018-Aug-11 02:00N 33°22' W 118°13'611.4
2018-Aug-11 01:31N 33°21' W 118°19'  

Dump ship's entire track history